This is the latest recevied weather packets stored in our database for station/object OK2ZA-6. If no packets are shown the sender has not sent any weather packets the latest 10 day(s).
| Time | Temp. | Humidity | Pressure | Rain* | Wind** | Luminosity | Snow |
|---|---|---|---|---|---|---|---|
| 1788336004 | 20° C | 57% | 1022.2 hPa | 0 mm | - | - | - |
| 1788335404 | 20° C | 59% | 1022.2 hPa | 0 mm | - | - | - |
| 1788334804 | 20° C | 58% | 1022.1 hPa | 0 mm | - | - | - |
| 1788334204 | 19.44° C | 60% | 1022.1 hPa | 0 mm | - | - | - |
| 1788333604 | 19.44° C | 63% | 1022.1 hPa | 0 mm | - | - | - |
| 1788333004 | 18.89° C | 62% | 1021.9 hPa | 0 mm | - | - | - |
| 1788332404 | 19.44° C | 61% | 1021.9 hPa | 0 mm | - | - | - |
| 1788331804 | 19.44° C | 59% | 1021.8 hPa | 0 mm | - | - | - |
| 1788331203 | 19.44° C | 62% | 1021.7 hPa | 0 mm | - | - | - |
| 1788330604 | 18.89° C | 62% | 1021.6 hPa | 0 mm | - | - | - |
| 1788330004 | 18.33° C | 64% | 1021.6 hPa | 0 mm | - | - | - |
| 1788329404 | 17.78° C | 65% | 1021.5 hPa | 0 mm | - | - | - |
| 1788328804 | 17.22° C | 70% | 1021.6 hPa | 0 mm | - | - | - |
| 1788328204 | 16.11° C | 75% | 1021.5 hPa | 0 mm | - | - | - |
| 1788327604 | 15° C | 78% | 1021.5 hPa | 0 mm | - | - | - |
| 1788327004 | 14.44° C | 76% | 1021.4 hPa | 0 mm | - | - | - |
| 1788326403 | 14.44° C | 74% | 1021.5 hPa | 0 mm | - | - | - |
| 1788325803 | 14.44° C | 74% | 1021.5 hPa | 0 mm | - | - | - |
| 1788325204 | 14.44° C | 72% | 1021.4 hPa | 0 mm | - | - | - |
| 1788324604 | 15° C | 71% | 1021.4 hPa | 0 mm | - | - | - |
| 1788324004 | 15° C | 71% | 1021.4 hPa | 0 mm | - | - | - |
| 1788323404 | 14.44° C | 73% | 1021.4 hPa | 0 mm | - | - | - |
| 1788322803 | 14.44° C | 73% | 1021.4 hPa | 0 mm | - | - | - |
| 1788322204 | 13.89° C | 74% | 1021.3 hPa | 0 mm | - | - | - |
| 1788321604 | 14.44° C | 73% | 1021.4 hPa | 0 mm | - | - | - |
* Rain latest hour (hover to see other rain measurements)
** Current wind speed in m/s (hover to see current wind gust speed)